createdAt,value
2023-04-30T00:00:38.866Z,3.47
2023-04-30T00:03:06.763Z,3.60
2023-04-30T00:05:34.664Z,3.20
2023-04-30T00:08:02.383Z,3.37
2023-04-30T00:10:30.079Z,3.77
2023-04-30T00:12:58.190Z,3.63
2023-04-30T00:15:27.388Z,3.43
2023-04-30T00:17:55.153Z,3.30
2023-04-30T00:20:22.903Z,3.53
2023-04-30T00:22:50.656Z,3.30
2023-04-30T00:25:18.463Z,3.47
2023-04-30T00:27:46.214Z,3.40
2023-04-30T00:30:14.348Z,3.60
2023-04-30T00:32:43.562Z,3.23
2023-04-30T00:35:11.700Z,3.40
2023-04-30T00:37:39.376Z,3.47
2023-04-30T00:40:07.873Z,3.70
2023-04-30T00:42:35.695Z,3.07
2023-04-30T00:45:03.468Z,3.20
2023-04-30T00:47:32.222Z,3.27
2023-04-30T00:50:01.521Z,3.80
2023-04-30T00:52:29.200Z,3.60
2023-04-30T00:54:57.105Z,3.50
2023-04-30T00:57:24.931Z,3.70
2023-04-30T00:59:52.850Z,3.50
2023-04-30T01:02:21.146Z,3.50
2023-04-30T01:04:48.987Z,3.30
2023-04-30T01:07:18.080Z,3.07
2023-04-30T01:09:45.831Z,3.50
2023-04-30T01:12:17.972Z,3.60
2023-04-30T01:14:52.469Z,3.73
2023-04-30T01:17:24.930Z,3.60
2023-04-30T01:19:52.800Z,3.90
2023-04-30T01:22:31.461Z,3.50
2023-04-30T01:25:07.700Z,3.37
2023-04-30T01:27:50.162Z,3.83
2023-04-30T01:30:18.451Z,3.73
2023-04-30T01:32:46.318Z,3.80
2023-04-30T01:35:14.063Z,3.70
2023-04-30T01:37:46.952Z,3.60
2023-04-30T01:40:22.848Z,3.63
2023-04-30T01:42:54.051Z,3.57
2023-04-30T01:45:31.438Z,3.37
2023-04-30T01:48:04.317Z,3.50
2023-04-30T01:50:35.344Z,3.80
2023-04-30T01:53:03.538Z,3.77
2023-04-30T01:55:34.073Z,3.43
2023-04-30T01:58:05.162Z,3.40
2023-04-30T02:00:32.881Z,3.63
2023-04-30T02:03:00.830Z,3.70
2023-04-30T02:05:28.888Z,3.47
2023-04-30T02:07:56.566Z,3.43
2023-04-30T02:10:25.875Z,4.17
2023-04-30T02:12:53.841Z,3.70
2023-04-30T02:15:23.110Z,3.70
2023-04-30T02:17:50.828Z,3.73
2023-04-30T02:20:18.776Z,4.10
2023-04-30T02:22:46.449Z,3.63
2023-04-30T02:25:14.288Z,3.47
2023-04-30T02:27:42.097Z,3.70
2023-04-30T02:30:09.934Z,4.10
2023-04-30T02:32:39.071Z,4.17
2023-04-30T02:35:07.238Z,3.50
2023-04-30T02:37:34.929Z,3.47
2023-04-30T02:40:02.612Z,4.63
2023-04-30T02:42:30.333Z,3.77
2023-04-30T02:44:58.004Z,3.57
2023-04-30T02:47:25.723Z,3.73
2023-04-30T02:49:55.030Z,4.20
2023-04-30T02:52:22.989Z,4.43
2023-04-30T02:54:50.957Z,4.13
2023-04-30T02:57:18.714Z,4.10
2023-04-30T02:59:46.554Z,4.00
2023-04-30T03:02:14.301Z,3.30
2023-04-30T03:04:42.012Z,3.57
2023-04-30T03:07:11.542Z,3.80
2023-04-30T03:09:39.224Z,4.27
2023-04-30T03:12:12.687Z,4.27
2023-04-30T03:14:40.415Z,3.60
2023-04-30T03:17:08.203Z,4.10
2023-04-30T03:19:36.098Z,3.40
2023-04-30T03:22:03.805Z,4.10
2023-04-30T03:24:32.997Z,3.50
2023-04-30T03:27:02.093Z,3.37
2023-04-30T03:29:29.920Z,3.00
2023-04-30T03:31:57.850Z,3.60
2023-04-30T03:34:25.559Z,3.63
2023-04-30T03:36:59.363Z,3.53
2023-04-30T03:39:27.114Z,3.60
2023-04-30T03:41:56.236Z,3.80
2023-04-30T03:44:23.964Z,3.20
2023-04-30T03:46:51.682Z,3.33
2023-04-30T03:49:19.381Z,3.53
2023-04-30T03:51:47.383Z,3.47
2023-04-30T03:54:15.082Z,3.57
2023-04-30T03:56:42.798Z,3.53
2023-04-30T03:59:11.883Z,3.50
2023-04-30T04:01:39.621Z,3.10
2023-04-30T04:04:07.468Z,3.00
2023-04-30T04:06:35.303Z,3.20
2023-04-30T04:09:03.684Z,3.53
2023-04-30T04:11:31.457Z,3.40
2023-04-30T04:13:59.126Z,3.40
2023-04-30T04:16:28.383Z,3.43
2023-04-30T04:18:56.371Z,3.10
2023-04-30T04:21:24.041Z,3.80
2023-04-30T04:23:51.827Z,3.53
2023-04-30T04:26:19.929Z,3.57
2023-04-30T04:28:47.869Z,3.70
2023-04-30T04:31:15.923Z,3.30
2023-04-30T04:33:45.466Z,3.50
2023-04-30T04:36:13.312Z,3.50
2023-04-30T04:38:41.084Z,3.17
2023-04-30T04:41:08.775Z,3.17
2023-04-30T04:43:37.114Z,3.60
2023-04-30T04:46:05.273Z,3.43
2023-04-30T04:48:33.001Z,3.77
2023-04-30T04:51:02.118Z,3.67
2023-04-30T04:53:29.801Z,3.43
2023-04-30T04:55:57.601Z,3.50
2023-04-30T04:58:25.370Z,3.47
2023-04-30T05:00:53.079Z,3.70
2023-04-30T05:03:21.339Z,3.63
2023-04-30T05:05:49.160Z,3.00
2023-04-30T05:08:18.325Z,3.30
2023-04-30T05:10:45.991Z,3.27
2023-04-30T05:13:13.702Z,3.50
2023-04-30T05:15:41.376Z,3.10
2023-04-30T05:18:09.141Z,2.93
2023-04-30T05:20:36.885Z,3.93
2023-04-30T05:23:04.589Z,3.40
2023-04-30T05:25:33.687Z,3.53
2023-04-30T05:28:01.356Z,3.17
2023-04-30T05:30:29.100Z,3.00
2023-04-30T05:32:57.111Z,3.00
2023-04-30T05:35:24.824Z,3.20
2023-04-30T05:37:52.640Z,3.30
2023-04-30T05:40:20.485Z,3.00
2023-04-30T05:42:49.553Z,3.13
2023-04-30T05:45:17.520Z,2.70
2023-04-30T05:47:45.349Z,3.27
2023-04-30T05:50:13.258Z,3.13
2023-04-30T05:52:40.973Z,3.00
2023-04-30T05:55:09.681Z,2.70
2023-04-30T05:57:37.391Z,3.30
2023-04-30T06:00:07.520Z,3.33
2023-04-30T06:02:35.519Z,3.30
2023-04-30T06:05:03.731Z,3.10
2023-04-30T06:07:31.744Z,3.30
2023-04-30T06:09:59.630Z,3.10
2023-04-30T06:12:27.340Z,3.17
2023-04-30T06:14:55.045Z,3.40
2023-04-30T06:17:24.168Z,3.10
2023-04-30T06:19:52.332Z,3.40
2023-04-30T06:22:20.433Z,3.30
2023-04-30T06:24:48.139Z,3.40
2023-04-30T06:27:22.971Z,3.20
2023-04-30T06:29:50.625Z,3.13
2023-04-30T06:32:18.331Z,3.47
2023-04-30T06:34:47.399Z,3.10
2023-04-30T06:37:15.053Z,3.33
2023-04-30T06:39:42.716Z,3.20
2023-04-30T06:42:10.433Z,3.40
2023-04-30T06:44:38.160Z,3.87
2023-04-30T06:47:05.908Z,3.50
2023-04-30T06:49:34.960Z,3.80
2023-04-30T06:52:05.236Z,3.37
2023-04-30T06:54:32.931Z,3.43
2023-04-30T06:57:01.945Z,3.90
2023-04-30T06:59:29.654Z,3.90
2023-04-30T07:01:57.395Z,3.10
2023-04-30T07:04:26.305Z,3.43
2023-04-30T07:06:54.018Z,3.17
2023-04-30T07:09:23.166Z,3.40
2023-04-30T07:11:51.296Z,3.20
2023-04-30T07:14:18.955Z,3.23
2023-04-30T07:16:46.714Z,3.30
2023-04-30T07:19:14.413Z,3.40
2023-04-30T07:21:42.121Z,3.13
2023-04-30T07:24:10.045Z,3.23
2023-04-30T07:26:39.124Z,3.33
2023-04-30T07:29:06.835Z,3.30
2023-04-30T07:31:34.655Z,3.50
2023-04-30T07:34:02.411Z,3.13
2023-04-30T07:36:30.184Z,3.40
2023-04-30T07:38:57.884Z,3.30
2023-04-30T07:41:25.612Z,3.20
2023-04-30T07:43:54.737Z,3.03
2023-04-30T07:46:22.483Z,3.13
2023-04-30T07:48:50.228Z,3.03
2023-04-30T07:51:18.205Z,2.83
2023-04-30T07:53:47.021Z,2.90
2023-04-30T07:56:14.741Z,3.00
2023-04-30T07:58:42.459Z,3.10
2023-04-30T08:01:11.794Z,2.97
2023-04-30T08:03:39.584Z,2.93
2023-04-30T08:06:07.947Z,2.80
2023-04-30T08:08:35.683Z,3.17
2023-04-30T08:11:03.345Z,3.20
2023-04-30T08:13:31.060Z,2.90
2023-04-30T08:15:58.808Z,3.70
2023-04-30T08:18:27.912Z,3.83
2023-04-30T08:20:55.600Z,3.77
2023-04-30T08:23:23.288Z,4.07
2023-04-30T08:25:51.807Z,4.50
2023-04-30T08:28:22.693Z,4.43
2023-04-30T08:30:50.400Z,5.00
2023-04-30T08:33:18.198Z,4.37
2023-04-30T08:35:47.373Z,4.87
2023-04-30T08:38:15.086Z,4.77
2023-04-30T08:43:13.569Z,4.60
2023-04-30T08:45:41.865Z,5.00
2023-04-30T08:48:11.535Z,5.40
2023-04-30T08:50:39.283Z,5.40
2023-04-30T08:53:09.031Z,5.77
2023-04-30T08:55:37.763Z,5.53
2023-04-30T08:58:06.759Z,7.03
2023-04-30T09:00:34.936Z,6.87
2023-04-30T09:03:02.855Z,7.77
2023-04-30T09:05:31.110Z,7.80
2023-04-30T09:08:03.762Z,8.00
2023-04-30T09:10:35.089Z,7.97
2023-04-30T09:13:03.493Z,8.13
2023-04-30T09:15:31.679Z,7.60
2023-04-30T09:18:12.740Z,8.00
2023-04-30T09:20:54.551Z,8.53
2023-04-30T09:23:22.297Z,8.20
2023-04-30T09:25:51.591Z,8.87
2023-04-30T09:28:23.726Z,8.47
2023-04-30T09:30:51.976Z,8.87
2023-04-30T09:33:20.388Z,8.47
2023-04-30T09:35:48.068Z,8.37
2023-04-30T09:38:28.606Z,8.10
2023-04-30T09:40:59.219Z,7.53
2023-04-30T09:43:26.932Z,7.50
2023-04-30T09:45:54.664Z,8.20
2023-04-30T09:48:23.253Z,9.10
2023-04-30T09:50:51.469Z,8.37
2023-04-30T09:53:19.653Z,8.23
2023-04-30T09:55:48.722Z,8.63
2023-04-30T09:58:18.479Z,8.77
2023-04-30T10:00:48.386Z,7.90
2023-04-30T10:03:16.521Z,8.23
2023-04-30T10:05:47.601Z,8.10
2023-04-30T10:08:19.370Z,8.13
2023-04-30T10:10:48.569Z,7.60
2023-04-30T10:13:19.475Z,7.97
2023-04-30T10:15:49.852Z,8.67
2023-04-30T10:18:20.411Z,7.73
2023-04-30T10:20:48.615Z,7.63
2023-04-30T10:23:16.516Z,7.67
2023-04-30T10:25:44.306Z,6.60
2023-04-30T10:28:12.610Z,6.63
2023-04-30T10:30:42.238Z,6.90
2023-04-30T10:33:16.446Z,6.40
2023-04-30T10:35:47.994Z,6.93
2023-04-30T10:38:19.211Z,7.63
2023-04-30T10:40:47.095Z,7.00
2023-04-30T10:43:15.106Z,7.37
2023-04-30T10:45:44.932Z,7.47
2023-04-30T10:48:12.800Z,7.37
2023-04-30T10:50:46.107Z,7.03
2023-04-30T10:53:14.635Z,7.00
2023-04-30T10:55:47.720Z,7.37
2023-04-30T10:58:25.250Z,7.57
2023-04-30T11:01:01.418Z,7.37
2023-04-30T11:03:29.845Z,6.10
2023-04-30T11:05:57.631Z,6.10
2023-04-30T11:08:35.433Z,6.30
2023-04-30T11:11:05.044Z,6.63
2023-04-30T11:13:43.078Z,6.90
2023-04-30T11:16:12.508Z,6.00
2023-04-30T11:18:44.934Z,6.23
2023-04-30T11:21:12.742Z,5.93
2023-04-30T11:23:42.889Z,6.67
2023-04-30T11:26:10.791Z,5.97
2023-04-30T11:28:39.060Z,6.80
2023-04-30T11:31:07.037Z,6.27
2023-04-30T11:33:36.349Z,7.50
2023-04-30T11:36:04.130Z,5.90
2023-04-30T11:38:32.396Z,6.50
2023-04-30T11:41:00.578Z,5.53
2023-04-30T11:43:28.809Z,6.30
2023-04-30T11:46:03.114Z,6.53
2023-04-30T11:48:34.351Z,6.50
2023-04-30T11:51:06.708Z,6.20
2023-04-30T11:53:34.447Z,6.00
2023-04-30T11:56:06.415Z,6.37
2023-04-30T11:58:38.128Z,5.97
2023-04-30T12:01:06.480Z,5.97
2023-04-30T12:03:34.321Z,7.10
2023-04-30T12:06:02.774Z,4.80
2023-04-30T12:08:31.922Z,6.07
2023-04-30T12:10:59.715Z,5.20
2023-04-30T12:13:27.604Z,4.80
2023-04-30T12:16:01.758Z,4.70
2023-04-30T12:18:29.510Z,4.27
2023-04-30T12:20:57.214Z,4.80
2023-04-30T12:23:24.962Z,4.87
2023-04-30T12:25:54.062Z,5.43
2023-04-30T12:28:24.521Z,5.30
2023-04-30T12:30:54.443Z,5.10
2023-04-30T12:33:22.247Z,5.20
2023-04-30T12:35:50.007Z,5.60
2023-04-30T12:38:17.983Z,5.73
2023-04-30T12:40:48.254Z,5.63
2023-04-30T12:43:18.268Z,6.60
2023-04-30T12:45:47.154Z,7.03
2023-04-30T12:48:15.641Z,6.50
2023-04-30T12:50:43.584Z,6.37
2023-04-30T12:53:11.699Z,7.83
2023-04-30T12:55:39.829Z,6.67
2023-04-30T12:58:08.676Z,7.23
2023-04-30T13:00:48.099Z,8.10
2023-04-30T13:03:16.813Z,6.73
2023-04-30T13:05:47.430Z,7.33
2023-04-30T13:08:15.229Z,7.93
2023-04-30T13:10:43.082Z,7.40
2023-04-30T13:13:11.343Z,5.67
2023-04-30T13:15:39.061Z,6.53
2023-04-30T13:18:08.969Z,6.00
2023-04-30T13:20:36.976Z,6.00
2023-04-30T13:23:05.051Z,7.10
2023-04-30T13:25:33.437Z,7.07
2023-04-30T13:28:01.472Z,7.13
2023-04-30T13:30:29.247Z,7.20
2023-04-30T13:32:56.969Z,6.97
2023-04-30T13:35:26.185Z,7.00
2023-04-30T13:37:55.996Z,6.73
2023-04-30T13:40:23.684Z,7.27
2023-04-30T13:42:51.401Z,6.80
2023-04-30T13:45:19.298Z,7.20
2023-04-30T13:47:47.335Z,7.97
2023-04-30T13:50:15.120Z,7.97
2023-04-30T13:52:44.205Z,6.40
2023-04-30T13:55:12.080Z,6.77
2023-04-30T13:57:39.922Z,6.93
2023-04-30T14:00:08.992Z,7.20
2023-04-30T14:02:36.837Z,7.27
2023-04-30T14:05:06.235Z,6.67
2023-04-30T14:07:34.214Z,7.20
2023-04-30T14:10:03.495Z,6.67
2023-04-30T14:12:31.629Z,7.73
2023-04-30T14:14:59.446Z,6.60
2023-04-30T14:17:28.288Z,7.00
2023-04-30T14:19:56.382Z,6.17
2023-04-30T14:22:24.534Z,7.20
2023-04-30T14:24:53.182Z,6.87
2023-04-30T14:27:22.809Z,7.03
2023-04-30T14:29:50.518Z,5.63
2023-04-30T14:32:18.447Z,6.60
2023-04-30T14:34:46.576Z,6.87
2023-04-30T14:37:15.599Z,7.60
2023-04-30T14:39:43.835Z,7.10
2023-04-30T14:42:11.608Z,7.43
2023-04-30T14:44:41.429Z,7.40
2023-04-30T14:47:09.184Z,6.47
2023-04-30T14:49:36.988Z,7.10
2023-04-30T14:52:04.761Z,6.33
2023-04-30T14:54:32.479Z,5.53
2023-04-30T14:57:00.215Z,6.90
2023-04-30T14:59:27.918Z,6.80
2023-04-30T15:01:57.183Z,5.53
2023-04-30T15:04:24.959Z,6.23
2023-04-30T15:06:52.763Z,6.30
2023-04-30T15:09:20.663Z,5.93
2023-04-30T15:11:48.531Z,6.10
2023-04-30T15:14:17.312Z,5.90
2023-04-30T15:16:45.501Z,5.63
2023-04-30T15:19:14.598Z,6.20
2023-04-30T15:21:42.328Z,5.83
2023-04-30T15:24:10.048Z,6.00
2023-04-30T15:26:37.875Z,5.77
2023-04-30T15:29:05.607Z,5.93
2023-04-30T15:31:33.356Z,5.70
2023-04-30T15:34:01.100Z,5.13
2023-04-30T15:36:30.240Z,5.40
2023-04-30T15:38:57.941Z,4.83
2023-04-30T15:41:25.708Z,5.23
2023-04-30T15:43:53.433Z,5.17
2023-04-30T15:46:21.271Z,4.87
2023-04-30T15:48:49.076Z,5.33
2023-04-30T15:51:16.949Z,5.60
2023-04-30T15:53:46.103Z,5.50
2023-04-30T15:56:13.928Z,6.03
2023-04-30T15:58:41.734Z,5.93
2023-04-30T16:01:09.517Z,5.40
2023-04-30T16:03:37.845Z,5.30
2023-04-30T16:06:05.850Z,5.10
2023-04-30T16:08:34.223Z,5.27
2023-04-30T16:11:03.841Z,4.90
2023-04-30T16:13:31.508Z,4.87
2023-04-30T16:15:59.219Z,5.00
2023-04-30T16:18:27.628Z,4.67
2023-04-30T16:20:55.343Z,4.27
2023-04-30T16:23:23.126Z,4.63
2023-04-30T16:25:50.801Z,5.00
2023-04-30T16:28:19.923Z,4.67
2023-04-30T16:30:47.612Z,4.70
2023-04-30T16:33:15.440Z,4.93
2023-04-30T16:35:44.523Z,4.43
2023-04-30T16:38:12.255Z,4.80
2023-04-30T16:40:40.011Z,4.67
2023-04-30T16:43:08.030Z,4.70
2023-04-30T16:45:37.555Z,5.10
2023-04-30T16:48:05.878Z,3.87
2023-04-30T16:50:33.695Z,4.30
2023-04-30T16:53:01.467Z,4.60
2023-04-30T16:55:29.172Z,4.27
2023-04-30T16:57:56.915Z,4.20
2023-04-30T17:00:24.599Z,4.03
2023-04-30T17:02:53.999Z,3.77
2023-04-30T17:05:21.801Z,3.53
2023-04-30T17:07:50.278Z,3.53
2023-04-30T17:10:19.652Z,3.87
2023-04-30T17:12:47.471Z,3.70
2023-04-30T17:15:15.358Z,3.83
2023-04-30T17:17:43.163Z,3.97
2023-04-30T17:20:13.379Z,4.20
2023-04-30T17:22:41.066Z,3.83
2023-04-30T17:25:09.289Z,3.40
2023-04-30T17:27:37.649Z,4.20
2023-04-30T17:30:05.724Z,3.73
2023-04-30T17:32:33.481Z,3.50
2023-04-30T17:35:02.846Z,3.47
2023-04-30T17:37:31.998Z,3.50
2023-04-30T17:39:59.731Z,3.53
2023-04-30T17:42:27.518Z,3.60
2023-04-30T17:44:55.216Z,2.93
2023-04-30T17:47:23.612Z,3.50
2023-04-30T17:49:51.654Z,3.60
2023-04-30T17:52:19.380Z,3.40
2023-04-30T17:54:48.506Z,3.20
2023-04-30T17:57:16.245Z,2.80
2023-04-30T17:59:44.027Z,3.10
2023-04-30T18:02:11.843Z,2.90
2023-04-30T18:04:39.616Z,3.43
2023-04-30T18:07:08.219Z,2.90
2023-04-30T18:09:36.214Z,3.50
2023-04-30T18:12:05.381Z,3.17
2023-04-30T18:14:33.311Z,3.57
2023-04-30T18:17:01.033Z,3.20
2023-04-30T18:19:28.790Z,3.33
2023-04-30T18:21:56.839Z,3.40
2023-04-30T18:24:27.729Z,3.37
2023-04-30T18:26:55.675Z,3.40
2023-04-30T18:29:24.779Z,3.47
2023-04-30T18:31:52.678Z,3.60
2023-04-30T18:34:20.515Z,3.23
2023-04-30T18:36:48.212Z,3.33
2023-04-30T18:39:16.035Z,3.20
2023-04-30T18:41:43.778Z,3.10
2023-04-30T18:44:13.574Z,3.00
2023-04-30T18:46:42.797Z,3.00
2023-04-30T18:49:10.520Z,3.30
2023-04-30T18:51:38.206Z,3.40
2023-04-30T18:54:08.842Z,3.17
2023-04-30T18:56:37.546Z,3.23
2023-04-30T18:59:05.346Z,3.30
2023-04-30T19:01:33.258Z,3.30
2023-04-30T19:04:03.486Z,3.13
2023-04-30T19:06:34.501Z,3.00
2023-04-30T19:09:03.681Z,3.10
2023-04-30T19:11:37.390Z,2.97
2023-04-30T19:14:05.270Z,3.00
2023-04-30T19:16:33.340Z,2.87
2023-04-30T19:19:02.687Z,3.20
2023-04-30T19:21:31.116Z,3.30
2023-04-30T19:23:58.927Z,2.97
2023-04-30T19:26:27.971Z,3.40
2023-04-30T19:28:55.790Z,3.10
2023-04-30T19:31:23.658Z,3.50
2023-04-30T19:33:51.566Z,3.10
2023-04-30T19:36:23.401Z,3.40
2023-04-30T19:38:52.411Z,3.43
2023-04-30T19:41:20.141Z,4.00
2023-04-30T19:43:47.877Z,3.50
2023-04-30T19:46:16.032Z,3.40
2023-04-30T19:48:45.363Z,3.70
2023-04-30T19:51:13.150Z,3.60
2023-04-30T19:53:42.287Z,3.70
2023-04-30T19:56:10.082Z,3.77
2023-04-30T19:58:37.857Z,4.20
2023-04-30T20:01:05.968Z,3.33
2023-04-30T20:03:34.204Z,3.23
2023-04-30T20:06:02.864Z,3.40
2023-04-30T20:08:30.614Z,3.20
2023-04-30T20:11:01.179Z,2.97
2023-04-30T20:13:29.697Z,3.30
2023-04-30T20:15:57.553Z,3.60
2023-04-30T20:18:25.282Z,4.10
2023-04-30T20:20:53.515Z,4.10
2023-04-30T20:23:21.197Z,4.20
2023-04-30T20:25:50.185Z,4.03
2023-04-30T20:28:20.339Z,3.60
2023-04-30T20:30:48.290Z,3.20
2023-04-30T20:33:16.429Z,4.20
2023-04-30T20:35:46.335Z,3.50
2023-04-30T20:38:14.581Z,4.37
2023-04-30T20:40:42.327Z,3.57
2023-04-30T20:43:11.076Z,4.30
2023-04-30T20:45:40.833Z,3.70
2023-04-30T20:48:09.127Z,4.23
2023-04-30T20:50:37.324Z,4.30
2023-04-30T20:53:05.060Z,4.30
2023-04-30T20:55:32.764Z,3.90
2023-04-30T20:58:00.546Z,4.60
2023-04-30T21:00:28.265Z,4.10
2023-04-30T21:02:57.478Z,4.23
2023-04-30T21:05:25.224Z,3.43
2023-04-30T21:07:53.070Z,4.33
2023-04-30T21:10:20.881Z,4.43
2023-04-30T21:12:48.699Z,4.67
2023-04-30T21:15:16.548Z,4.80
2023-04-30T21:17:44.274Z,4.77
2023-04-30T21:20:14.144Z,5.13
2023-04-30T21:22:42.266Z,4.40
2023-04-30T21:25:12.250Z,5.27
2023-04-30T21:27:40.007Z,4.90
2023-04-30T21:30:08.482Z,5.47
2023-04-30T21:32:36.290Z,5.40
2023-04-30T21:35:04.094Z,4.70
2023-04-30T21:37:33.223Z,5.37
2023-04-30T21:40:00.899Z,4.83
2023-04-30T21:42:29.088Z,5.40
2023-04-30T21:44:56.779Z,4.40
2023-04-30T21:47:24.523Z,4.87
2023-04-30T21:49:52.199Z,4.70
2023-04-30T21:52:19.864Z,4.73
2023-04-30T21:54:51.060Z,4.73
2023-04-30T21:57:19.308Z,5.50
2023-04-30T21:59:47.029Z,4.37
2023-04-30T22:02:23.858Z,4.80
2023-04-30T22:04:53.382Z,3.90
2023-04-30T22:07:21.498Z,4.87
2023-04-30T22:09:49.277Z,3.83
2023-04-30T22:12:19.287Z,5.13
2023-04-30T22:14:48.064Z,4.90
2023-04-30T22:17:15.794Z,4.83
2023-04-30T22:19:43.504Z,4.70
2023-04-30T22:22:11.805Z,4.37
2023-04-30T22:24:39.489Z,4.87
2023-04-30T22:27:07.248Z,4.63
2023-04-30T22:29:36.368Z,4.63
2023-04-30T22:32:04.825Z,5.00
2023-04-30T22:34:33.385Z,4.80
2023-04-30T22:37:01.133Z,4.67
2023-04-30T22:39:28.835Z,4.63
2023-04-30T22:41:57.263Z,4.80
2023-04-30T22:44:25.150Z,4.57
2023-04-30T22:46:56.726Z,4.73
2023-04-30T22:49:31.061Z,4.40
2023-04-30T22:51:59.907Z,4.80
2023-04-30T22:54:27.748Z,4.40
2023-04-30T22:56:55.775Z,4.90
2023-04-30T22:59:23.502Z,4.17
2023-04-30T23:01:51.447Z,4.43
2023-04-30T23:04:20.604Z,4.40
2023-04-30T23:06:48.341Z,4.83
2023-04-30T23:09:16.658Z,4.13
2023-04-30T23:11:44.894Z,4.57
2023-04-30T23:14:12.588Z,4.90
2023-04-30T23:16:42.761Z,4.40
2023-04-30T23:19:10.866Z,4.30
2023-04-30T23:21:40.330Z,4.40
2023-04-30T23:24:08.004Z,4.17
2023-04-30T23:26:35.734Z,3.70
2023-04-30T23:29:03.834Z,4.80
2023-04-30T23:31:31.550Z,3.67
2023-04-30T23:33:59.257Z,4.10
2023-04-30T23:36:26.929Z,4.60
2023-04-30T23:38:56.061Z,4.47
2023-04-30T23:41:23.787Z,4.23
2023-04-30T23:43:51.495Z,4.77
2023-04-30T23:46:19.267Z,4.07
2023-04-30T23:48:47.064Z,4.63
2023-04-30T23:51:14.770Z,4.87
2023-04-30T23:53:42.696Z,4.37
2023-04-30T23:56:11.826Z,3.60
2023-04-30T23:58:39.537Z,4.30
